UAKK 171730Z 03003MPS CAVOK 12/06 Q1009 NOSIG RMK QFE711/0948
QNH:(hPa/inHg/mmHg)1009 / 29.8 / 757
QFE:(hPa/inHg/mmHg)944 / 27.86 / 708
Temperature12
Dew Point6
Visibility> 10000
WeatherCAVOK
Cloud Cover
Transition Height10000 m./34600 ft.
Transition LevelFL370
SQUAWK